createdAt,value
2022-11-07T00:01:24.359Z,2.20
2022-11-07T00:03:45.974Z,2.50
2022-11-07T00:06:08.058Z,2.53
2022-11-07T00:08:32.130Z,2.50
2022-11-07T00:10:54.682Z,2.43
2022-11-07T00:13:16.487Z,2.50
2022-11-07T00:15:38.240Z,2.50
2022-11-07T00:17:59.722Z,2.50
2022-11-07T00:20:21.200Z,2.73
2022-11-07T00:22:42.674Z,3.03
2022-11-07T00:25:04.533Z,3.10
2022-11-07T00:27:26.031Z,2.70
2022-11-07T00:29:47.610Z,2.73
2022-11-07T00:32:09.119Z,3.07
2022-11-07T00:34:32.857Z,3.07
2022-11-07T00:36:54.387Z,2.87
2022-11-07T00:39:15.919Z,2.90
2022-11-07T00:41:37.556Z,2.90
2022-11-07T00:43:59.025Z,3.17
2022-11-07T00:46:21.178Z,3.50
2022-11-07T00:48:43.036Z,3.00
2022-11-07T00:51:06.219Z,3.40
2022-11-07T00:53:27.680Z,3.20
2022-11-07T00:55:49.206Z,2.97
2022-11-07T00:58:13.835Z,4.03
2022-11-07T01:00:37.129Z,3.13
2022-11-07T01:03:17.163Z,3.30
2022-11-07T01:05:38.974Z,4.30
2022-11-07T01:08:00.454Z,4.00
2022-11-07T01:10:21.973Z,3.20
2022-11-07T01:12:44.053Z,3.80
2022-11-07T01:15:05.936Z,5.80
2022-11-07T01:17:27.405Z,4.57
2022-11-07T01:19:48.874Z,3.17
2022-11-07T01:22:11.590Z,3.50
2022-11-07T01:24:33.070Z,4.93
2022-11-07T01:26:54.498Z,3.00
2022-11-07T01:29:17.194Z,4.40
2022-11-07T01:31:38.678Z,4.10
2022-11-07T01:34:00.993Z,3.07
2022-11-07T01:36:22.467Z,3.53
2022-11-07T01:38:48.488Z,4.20
2022-11-07T01:41:21.930Z,2.80
2022-11-07T01:43:49.822Z,3.07
2022-11-07T01:46:11.386Z,4.10
2022-11-07T01:48:33.139Z,3.73
2022-11-07T01:50:54.708Z,2.70
2022-11-07T01:53:16.494Z,2.70
2022-11-07T01:55:38.232Z,2.80
2022-11-07T01:58:07.570Z,3.20
2022-11-07T02:00:29.306Z,3.63
2022-11-07T02:03:09.132Z,4.30
2022-11-07T02:05:58.987Z,4.37
2022-11-07T02:08:21.951Z,3.20
2022-11-07T02:10:44.058Z,2.70
2022-11-07T02:13:05.807Z,4.27
2022-11-07T02:15:27.396Z,3.93
2022-11-07T02:17:49.556Z,2.77
2022-11-07T02:20:11.672Z,4.70
2022-11-07T02:22:46.800Z,3.43
2022-11-07T02:25:14.211Z,2.70
2022-11-07T02:27:37.316Z,2.70
2022-11-07T02:30:06.288Z,3.17
2022-11-07T02:32:27.924Z,3.00
2022-11-07T02:35:00.138Z,3.37
2022-11-07T02:37:26.936Z,2.80
2022-11-07T02:39:48.475Z,2.33
2022-11-07T02:42:10.448Z,3.13
2022-11-07T02:44:32.873Z,3.27
2022-11-07T02:46:54.541Z,2.83
2022-11-07T02:49:16.072Z,2.70
2022-11-07T02:51:37.552Z,3.00
2022-11-07T02:53:59.048Z,3.23
2022-11-07T02:56:21.502Z,3.40
2022-11-07T02:58:43.026Z,3.00
2022-11-07T03:01:09.117Z,3.43
2022-11-07T03:03:30.735Z,3.20
2022-11-07T03:05:52.181Z,3.03
2022-11-07T03:08:13.658Z,3.37
2022-11-07T03:10:35.130Z,3.30
2022-11-07T03:12:56.650Z,3.40
2022-11-07T03:15:18.192Z,3.27
2022-11-07T03:17:40.513Z,3.40
2022-11-07T03:20:02.351Z,3.60
2022-11-07T03:22:23.842Z,3.30
2022-11-07T03:24:45.319Z,3.30
2022-11-07T03:27:06.815Z,3.37
2022-11-07T03:29:28.311Z,3.27
2022-11-07T03:31:49.804Z,3.13
2022-11-07T03:34:11.377Z,3.47
2022-11-07T03:36:34.092Z,3.43
2022-11-07T03:38:55.579Z,4.00
2022-11-07T03:41:17.446Z,3.50
2022-11-07T03:43:38.950Z,3.50
2022-11-07T03:46:00.418Z,3.63
2022-11-07T03:48:21.910Z,2.93
2022-11-07T03:50:43.375Z,3.07
2022-11-07T03:53:04.825Z,2.60
2022-11-07T03:55:26.282Z,2.83
2022-11-07T03:57:48.111Z,2.90
2022-11-07T04:00:10.599Z,2.57
2022-11-07T04:02:32.178Z,2.47
2022-11-07T04:04:53.726Z,2.47
2022-11-07T04:07:15.414Z,2.70
2022-11-07T04:09:36.887Z,4.87
2022-11-07T04:12:16.806Z,2.67
2022-11-07T04:14:56.627Z,2.97
2022-11-07T04:17:21.031Z,2.37
2022-11-07T04:19:42.546Z,2.50
2022-11-07T04:22:04.033Z,2.33
2022-11-07T04:24:25.523Z,2.50
2022-11-07T04:27:05.779Z,2.80
2022-11-07T04:29:27.262Z,2.90
2022-11-07T04:31:48.737Z,3.13
2022-11-07T04:34:10.207Z,4.23
2022-11-07T04:36:31.682Z,2.93
2022-11-07T04:38:53.135Z,2.80
2022-11-07T04:41:24.480Z,2.60
2022-11-07T04:43:45.922Z,2.90
2022-11-07T04:46:07.376Z,2.40
2022-11-07T04:48:28.846Z,3.80
2022-11-07T04:50:50.641Z,2.10
2022-11-07T04:53:13.569Z,2.93
2022-11-07T04:55:35.263Z,2.70
2022-11-07T04:57:57.455Z,2.37
2022-11-07T05:00:20.058Z,3.17
2022-11-07T05:02:42.077Z,3.60
2022-11-07T05:05:04.204Z,3.53
2022-11-07T05:07:25.704Z,3.80
2022-11-07T05:09:47.310Z,4.00
2022-11-07T05:12:08.949Z,3.60
2022-11-07T05:14:33.306Z,3.47
2022-11-07T05:16:55.121Z,5.57
2022-11-07T05:19:18.367Z,9.93
2022-11-07T05:21:39.888Z,3.73
2022-11-07T05:24:01.374Z,4.00
2022-11-07T05:26:22.856Z,3.80
2022-11-07T05:28:44.322Z,4.27
2022-11-07T05:31:07.487Z,5.40
2022-11-07T05:33:29.275Z,4.70
2022-11-07T05:35:50.766Z,4.07
2022-11-07T05:38:13.166Z,5.20
2022-11-07T05:40:35.814Z,4.70
2022-11-07T05:43:01.718Z,4.60
2022-11-07T05:45:23.167Z,5.13
2022-11-07T05:47:44.753Z,6.20
2022-11-07T05:50:06.755Z,4.33
2022-11-07T05:52:28.229Z,4.37
2022-11-07T05:54:49.682Z,5.50
2022-11-07T05:57:11.166Z,3.77
2022-11-07T05:59:32.656Z,3.30
2022-11-07T06:01:54.296Z,3.40
2022-11-07T06:04:15.928Z,3.10
2022-11-07T06:06:37.490Z,3.33
2022-11-07T06:08:59.096Z,3.50
2022-11-07T06:11:20.556Z,2.73
2022-11-07T06:13:41.985Z,3.60
2022-11-07T06:16:03.975Z,3.53
2022-11-07T06:18:25.553Z,3.03
2022-11-07T06:20:47.081Z,2.50
2022-11-07T06:23:08.926Z,3.23
2022-11-07T06:25:30.657Z,3.30
2022-11-07T06:27:52.291Z,3.57
2022-11-07T06:30:13.773Z,2.70
2022-11-07T06:32:36.573Z,2.40
2022-11-07T06:34:58.126Z,3.47
2022-11-07T06:37:20.063Z,3.30
2022-11-07T06:39:41.519Z,2.40
2022-11-07T06:42:03.089Z,2.60
2022-11-07T06:44:24.534Z,4.17
2022-11-07T06:46:48.651Z,2.63
2022-11-07T06:49:11.267Z,3.50
2022-11-07T06:51:32.757Z,3.47
2022-11-07T06:53:54.413Z,2.60
2022-11-07T06:56:16.465Z,2.70
2022-11-07T06:58:38.009Z,2.70
2022-11-07T07:01:04.194Z,2.50
2022-11-07T07:03:25.678Z,2.63
2022-11-07T07:05:47.148Z,2.67
2022-11-07T07:08:13.030Z,2.30
2022-11-07T07:10:44.827Z,2.50
2022-11-07T07:13:06.596Z,2.53
2022-11-07T07:15:28.176Z,2.77
2022-11-07T07:17:49.656Z,3.57
2022-11-07T07:20:11.599Z,12.07
2022-11-07T07:22:33.087Z,3.60
2022-11-07T07:24:54.626Z,3.13
2022-11-07T07:27:16.134Z,2.60
2022-11-07T07:29:37.599Z,2.23
2022-11-07T07:31:59.058Z,2.10
2022-11-07T07:34:20.553Z,2.00
2022-11-07T07:36:42.072Z,3.17
2022-11-07T07:39:03.656Z,2.50
2022-11-07T07:41:25.174Z,2.23
2022-11-07T07:43:46.739Z,2.30
2022-11-07T07:46:08.972Z,1.97
2022-11-07T07:48:31.375Z,1.93
2022-11-07T07:50:52.973Z,1.90
2022-11-07T07:53:14.719Z,2.33
2022-11-07T07:55:36.361Z,2.20
2022-11-07T07:57:57.833Z,2.13
2022-11-07T08:00:19.842Z,1.80
2022-11-07T08:02:43.892Z,1.97
2022-11-07T08:05:05.931Z,2.07
2022-11-07T08:07:27.521Z,1.80
2022-11-07T08:09:48.993Z,2.50
2022-11-07T08:12:10.454Z,2.10
2022-11-07T08:14:32.810Z,1.93
2022-11-07T08:16:54.257Z,2.03
2022-11-07T08:19:15.753Z,2.10
2022-11-07T08:21:37.206Z,2.43
2022-11-07T08:23:58.699Z,1.80
2022-11-07T08:26:20.590Z,2.47
2022-11-07T08:28:42.050Z,1.87
2022-11-07T08:31:09.760Z,1.70
2022-11-07T08:33:31.625Z,2.17
2022-11-07T08:35:57.738Z,1.73
2022-11-07T08:38:19.190Z,1.90
2022-11-07T08:40:40.872Z,2.07
2022-11-07T08:43:02.326Z,1.90
2022-11-07T08:45:23.816Z,1.90
2022-11-07T08:47:45.368Z,1.93
2022-11-07T08:50:08.043Z,1.70
2022-11-07T08:52:29.546Z,2.10
2022-11-07T08:54:51.074Z,2.13
2022-11-07T08:57:12.555Z,2.20
2022-11-07T08:59:34.029Z,2.00
2022-11-07T09:02:36.989Z,2.00
2022-11-07T09:04:37.730Z,1.87
2022-11-07T09:06:59.258Z,2.17
2022-11-07T09:09:20.767Z,3.17
2022-11-07T09:11:42.533Z,2.90
2022-11-07T09:14:04.346Z,3.87
2022-11-07T09:16:25.865Z,1.80
2022-11-07T09:18:48.952Z,2.20
2022-11-07T09:21:11.198Z,2.03
2022-11-07T09:23:32.728Z,2.00
2022-11-07T09:25:54.677Z,2.40
2022-11-07T09:28:16.371Z,1.63
2022-11-07T09:30:37.870Z,1.87
2022-11-07T09:32:59.349Z,2.50
2022-11-07T09:35:20.850Z,2.03
2022-11-07T09:37:42.854Z,1.80
2022-11-07T09:40:05.209Z,1.60
2022-11-07T09:42:50.609Z,1.90
2022-11-07T09:45:13.869Z,2.00
2022-11-07T09:48:00.138Z,1.90
2022-11-07T09:50:34.036Z,2.17
2022-11-07T09:52:57.882Z,1.50
2022-11-07T09:55:23.413Z,1.87
2022-11-07T09:57:45.768Z,2.10
2022-11-07T10:00:15.055Z,2.03
2022-11-07T10:02:43.546Z,1.90
2022-11-07T10:05:06.014Z,1.67
2022-11-07T10:07:42.683Z,1.80
2022-11-07T10:10:37.065Z,2.13
2022-11-07T10:13:17.152Z,1.37
2022-11-07T10:15:57.255Z,1.90
2022-11-07T10:18:52.136Z,1.40
2022-11-07T10:21:38.892Z,1.92
2022-11-07T10:24:25.421Z,1.87
2022-11-07T10:26:46.981Z,1.70
2022-11-07T10:29:20.717Z,1.60
2022-11-07T10:31:59.678Z,1.40
2022-11-07T10:34:29.146Z,2.10
2022-11-07T10:36:51.331Z,1.67
2022-11-07T10:39:18.864Z,1.73
2022-11-07T10:41:43.753Z,3.30
2022-11-07T10:44:10.607Z,2.80
2022-11-07T10:46:39.390Z,1.87
2022-11-07T10:49:03.128Z,1.67
2022-11-07T10:51:34.564Z,1.80
2022-11-07T10:53:56.066Z,1.97
2022-11-07T10:56:19.411Z,2.17
2022-11-07T10:58:44.892Z,1.80
2022-11-07T11:01:09.207Z,1.57
2022-11-07T11:03:45.380Z,1.67
2022-11-07T11:06:21.653Z,1.55
2022-11-07T11:08:43.219Z,1.80
2022-11-07T11:11:29.993Z,2.63
2022-11-07T11:14:12.142Z,2.27
2022-11-07T11:16:37.555Z,1.97
2022-11-07T11:19:01.248Z,1.90
2022-11-07T11:21:23.387Z,1.60
2022-11-07T11:23:46.845Z,1.75
2022-11-07T11:26:21.529Z,2.00
2022-11-07T11:28:48.444Z,1.80
2022-11-07T11:31:26.541Z,1.58
2022-11-07T11:33:53.896Z,1.83
2022-11-07T11:36:23.687Z,1.70
2022-11-07T11:38:55.481Z,1.70
2022-11-07T11:41:23.315Z,1.70
2022-11-07T11:43:54.403Z,2.05
2022-11-07T11:46:30.689Z,2.30
2022-11-07T11:48:57.523Z,1.95
2022-11-07T11:51:27.320Z,1.60
2022-11-07T11:53:48.957Z,1.63
2022-11-07T11:56:31.535Z,1.83
2022-11-07T11:59:28.207Z,1.87
2022-11-07T12:02:05.178Z,1.50
2022-11-07T12:04:29.626Z,1.67
2022-11-07T12:07:00.462Z,1.80
2022-11-07T12:09:44.257Z,1.90
2022-11-07T12:12:25.743Z,1.90
2022-11-07T12:15:09.238Z,1.70
2022-11-07T12:17:52.676Z,1.70
2022-11-07T12:20:36.143Z,1.70
2022-11-07T12:23:03.499Z,1.33
2022-11-07T12:25:30.031Z,1.97
2022-11-07T12:28:00.228Z,1.70
2022-11-07T12:30:31.294Z,1.87
2022-11-07T12:33:15.001Z,1.60
2022-11-07T12:36:03.305Z,1.90
2022-11-07T12:39:12.428Z,1.73
2022-11-07T12:41:57.515Z,1.80
2022-11-07T12:44:34.135Z,1.20
2022-11-07T12:46:58.720Z,1.77
2022-11-07T12:49:36.162Z,1.47
2022-11-07T12:52:16.240Z,1.70
2022-11-07T12:54:56.545Z,2.07
2022-11-07T12:57:21.808Z,1.60
2022-11-07T12:59:50.387Z,1.73
2022-11-07T13:02:44.730Z,1.53
2022-11-07T13:05:18.459Z,1.88
2022-11-07T13:07:50.592Z,1.80
2022-11-07T13:10:36.994Z,1.47
2022-11-07T13:13:15.392Z,1.80
2022-11-07T13:16:09.011Z,1.93
2022-11-07T13:18:25.302Z,1.70
2022-11-07T13:20:47.148Z,1.57
2022-11-07T13:23:16.335Z,1.90
2022-11-07T13:25:39.013Z,1.70
2022-11-07T13:28:05.129Z,1.60
2022-11-07T13:30:36.039Z,1.90
2022-11-07T13:32:59.418Z,1.50
2022-11-07T13:35:23.616Z,1.93
2022-11-07T13:37:48.028Z,1.70
2022-11-07T13:40:44.834Z,2.00
2022-11-07T13:43:20.820Z,1.60
2022-11-07T13:45:45.250Z,1.70
2022-11-07T13:48:16.837Z,1.93
2022-11-07T13:50:46.675Z,1.57
2022-11-07T13:53:24.770Z,1.77
2022-11-07T13:55:56.073Z,1.63
2022-11-07T13:58:19.459Z,1.83
2022-11-07T14:00:41.046Z,1.93
2022-11-07T14:03:02.692Z,1.40
2022-11-07T14:05:30.243Z,1.80
2022-11-07T14:07:55.438Z,1.67
2022-11-07T14:10:22.249Z,1.60
2022-11-07T14:12:43.978Z,1.90
2022-11-07T14:15:06.788Z,1.73
2022-11-07T14:17:32.791Z,2.23
2022-11-07T14:20:06.080Z,1.70
2022-11-07T14:22:28.107Z,1.77
2022-11-07T14:24:55.242Z,1.60
2022-11-07T14:27:16.737Z,1.67
2022-11-07T14:29:38.425Z,1.67
2022-11-07T14:32:05.253Z,1.83
2022-11-07T14:34:27.067Z,1.90
2022-11-07T14:36:52.821Z,1.70
2022-11-07T14:39:15.926Z,1.70
2022-11-07T14:41:40.964Z,2.17
2022-11-07T14:44:04.088Z,1.80
2022-11-07T14:46:25.972Z,1.60
2022-11-07T14:48:49.679Z,1.60
2022-11-07T14:51:14.923Z,1.87
2022-11-07T14:53:47.207Z,2.00
2022-11-07T14:56:13.718Z,1.40
2022-11-07T14:58:35.443Z,1.97
2022-11-07T15:01:10.185Z,2.13
2022-11-07T15:03:34.234Z,1.60
2022-11-07T15:05:55.744Z,2.07
2022-11-07T15:08:34.586Z,1.60
2022-11-07T15:11:20.556Z,2.00
2022-11-07T15:13:42.655Z,2.20
2022-11-07T15:16:07.857Z,2.23
2022-11-07T15:18:30.203Z,1.80
2022-11-07T15:21:01.423Z,2.23
2022-11-07T15:23:22.832Z,1.80
2022-11-07T15:25:56.687Z,1.87
2022-11-07T15:28:19.974Z,1.93
2022-11-07T15:30:43.599Z,2.10
2022-11-07T15:33:06.685Z,1.97
2022-11-07T15:35:44.754Z,1.90
2022-11-07T15:38:07.351Z,1.90
2022-11-07T15:40:29.379Z,2.13
2022-11-07T15:42:50.893Z,2.17
2022-11-07T15:45:12.647Z,1.97
2022-11-07T15:47:34.937Z,1.87
2022-11-07T15:49:56.510Z,2.20
2022-11-07T15:52:17.970Z,2.47
2022-11-07T15:54:39.433Z,2.47
2022-11-07T15:57:04.495Z,2.00
2022-11-07T15:59:31.743Z,2.17
2022-11-07T16:01:53.369Z,2.00
2022-11-07T16:04:15.053Z,2.10
2022-11-07T16:06:38.935Z,2.10
2022-11-07T16:09:06.441Z,2.07
2022-11-07T16:11:27.927Z,1.90
2022-11-07T16:13:50.886Z,2.63
2022-11-07T16:16:24.457Z,1.97
2022-11-07T16:18:49.849Z,2.27
2022-11-07T16:21:11.421Z,2.03
2022-11-07T16:23:32.944Z,2.33
2022-11-07T16:25:55.525Z,1.60
2022-11-07T16:28:25.347Z,1.80
2022-11-07T16:30:46.852Z,1.90
2022-11-07T16:33:10.709Z,1.70
2022-11-07T16:35:32.151Z,2.10
2022-11-07T16:37:53.742Z,1.90
2022-11-07T16:40:18.949Z,2.03
2022-11-07T16:42:40.535Z,2.13
2022-11-07T16:45:02.398Z,1.90
2022-11-07T16:47:24.059Z,2.07
2022-11-07T16:49:45.638Z,1.90
2022-11-07T16:52:09.706Z,2.00
2022-11-07T16:54:31.198Z,1.90
2022-11-07T16:56:53.183Z,2.10
2022-11-07T16:59:22.552Z,1.80
2022-11-07T17:01:44.280Z,1.90
2022-11-07T17:04:06.267Z,2.10
2022-11-07T17:06:31.332Z,1.93
2022-11-07T17:08:52.955Z,2.00
2022-11-07T17:11:16.319Z,1.40
2022-11-07T17:13:37.796Z,1.97
2022-11-07T17:15:59.660Z,1.93
2022-11-07T17:18:22.854Z,1.97
2022-11-07T17:20:52.304Z,1.90
2022-11-07T17:23:14.707Z,1.77
2022-11-07T17:25:37.614Z,2.00
2022-11-07T17:27:59.082Z,2.07
2022-11-07T17:30:20.675Z,2.13
2022-11-07T17:32:42.141Z,1.97
2022-11-07T17:35:30.714Z,1.83
2022-11-07T17:37:45.321Z,2.00
2022-11-07T17:40:07.319Z,2.20
2022-11-07T17:42:31.541Z,2.40
2022-11-07T17:44:55.299Z,2.40
2022-11-07T17:47:34.364Z,2.67
2022-11-07T17:49:57.031Z,1.90
2022-11-07T17:52:18.482Z,1.90
2022-11-07T17:54:39.956Z,2.20
2022-11-07T17:57:03.640Z,2.67
2022-11-07T17:59:25.559Z,3.10
2022-11-07T18:01:47.286Z,2.50
2022-11-07T18:04:10.868Z,2.43
2022-11-07T18:06:37.651Z,1.80
2022-11-07T18:09:00.737Z,2.20
2022-11-07T18:11:25.740Z,3.60
2022-11-07T18:13:50.731Z,2.57
2022-11-07T18:16:18.534Z,2.83
2022-11-07T18:18:40.024Z,2.60
2022-11-07T18:21:02.328Z,2.90
2022-11-07T18:23:23.828Z,2.83
2022-11-07T18:25:45.297Z,2.13
2022-11-07T18:28:07.005Z,2.57
2022-11-07T18:30:30.099Z,3.20
2022-11-07T18:32:51.633Z,4.40
2022-11-07T18:35:13.237Z,4.53
2022-11-07T18:40:06.766Z,5.53
2022-11-07T18:42:29.269Z,3.93
2022-11-07T18:44:50.899Z,5.00
2022-11-07T18:47:12.369Z,4.60
2022-11-07T18:49:33.847Z,4.63
2022-11-07T18:51:55.389Z,4.20
2022-11-07T18:54:16.954Z,4.37
2022-11-07T18:56:39.756Z,4.20
2022-11-07T18:59:01.307Z,3.80
2022-11-07T19:01:28.624Z,3.80
2022-11-07T19:03:50.315Z,8.03
2022-11-07T19:06:14.378Z,5.00
2022-11-07T19:08:39.031Z,2.57
2022-11-07T19:11:02.586Z,6.13
2022-11-07T19:13:26.472Z,3.60
2022-11-07T19:15:47.990Z,5.03
2022-11-07T19:18:09.492Z,6.97
2022-11-07T19:20:30.970Z,2.67
2022-11-07T19:22:52.473Z,2.60
2022-11-07T19:25:18.821Z,5.30
2022-11-07T19:27:41.301Z,3.30
2022-11-07T19:30:03.543Z,2.40
2022-11-07T19:32:25.143Z,3.63
2022-11-07T19:34:46.737Z,3.73
2022-11-07T19:37:08.233Z,1.83
2022-11-07T19:39:32.690Z,2.50
2022-11-07T19:41:55.246Z,2.50
2022-11-07T19:44:16.748Z,3.00
2022-11-07T19:46:38.309Z,2.70
2022-11-07T19:48:59.808Z,3.50
2022-11-07T19:51:23.359Z,2.17
2022-11-07T19:53:45.000Z,2.10
2022-11-07T19:56:09.194Z,2.20
2022-11-07T19:58:30.717Z,2.40
2022-11-07T20:00:52.467Z,2.10
2022-11-07T20:03:14.226Z,1.90
2022-11-07T20:05:38.475Z,2.90
2022-11-07T20:08:05.037Z,2.07
2022-11-07T20:10:26.914Z,2.53
2022-11-07T20:12:48.895Z,2.77
2022-11-07T20:15:11.245Z,2.67
2022-11-07T20:17:32.718Z,2.63
2022-11-07T20:19:54.193Z,4.37
2022-11-07T20:22:15.679Z,3.00
2022-11-07T20:24:37.247Z,5.13
2022-11-07T20:26:58.743Z,3.60
2022-11-07T20:29:22.890Z,2.57
2022-11-07T20:31:45.306Z,2.70
2022-11-07T20:34:07.790Z,3.43
2022-11-07T20:36:31.182Z,3.13
2022-11-07T20:38:56.258Z,2.90
2022-11-07T20:41:17.866Z,2.60
2022-11-07T20:43:39.953Z,3.43
2022-11-07T20:46:13.047Z,3.97
2022-11-07T20:48:35.134Z,3.50
2022-11-07T20:50:56.595Z,4.97
2022-11-07T20:53:18.605Z,2.50
2022-11-07T20:55:42.675Z,4.80
2022-11-07T20:58:04.458Z,3.90
2022-11-07T21:00:25.988Z,4.03
2022-11-07T21:02:47.677Z,3.67
2022-11-07T21:05:17.719Z,2.60
2022-11-07T21:07:41.742Z,3.10
2022-11-07T21:10:03.366Z,2.70
2022-11-07T21:12:24.835Z,4.47
2022-11-07T21:14:46.287Z,3.13
2022-11-07T21:17:09.119Z,1.97
2022-11-07T21:19:30.679Z,2.20
2022-11-07T21:21:52.165Z,3.47
2022-11-07T21:24:13.641Z,3.80
2022-11-07T21:26:38.946Z,2.07
2022-11-07T21:29:02.136Z,2.90
2022-11-07T21:31:27.202Z,4.03
2022-11-07T21:33:48.680Z,2.80
2022-11-07T21:36:11.992Z,2.43
2022-11-07T21:38:33.478Z,1.90
2022-11-07T21:40:54.955Z,2.30
2022-11-07T21:43:16.639Z,3.00
2022-11-07T21:45:38.459Z,2.33
2022-11-07T21:47:59.929Z,2.20
2022-11-07T21:50:43.432Z,2.00
2022-11-07T21:53:02.854Z,2.17
2022-11-07T21:55:24.554Z,1.90
2022-11-07T21:57:46.402Z,2.10
2022-11-07T22:00:09.219Z,1.93
2022-11-07T22:02:30.793Z,2.53
2022-11-07T22:04:52.317Z,2.40
2022-11-07T22:07:13.794Z,1.90
2022-11-07T22:09:35.321Z,2.23
2022-11-07T22:11:56.850Z,2.30
2022-11-07T22:14:20.702Z,2.33
2022-11-07T22:16:42.558Z,2.10
2022-11-07T22:19:07.226Z,2.37
2022-11-07T22:21:31.519Z,2.50
2022-11-07T22:23:53.019Z,2.10
2022-11-07T22:26:17.010Z,2.50
2022-11-07T22:28:42.948Z,2.67
2022-11-07T22:31:09.534Z,2.23
2022-11-07T22:33:31.158Z,2.93
2022-11-07T22:35:52.689Z,2.33
2022-11-07T22:38:14.199Z,2.30
2022-11-07T22:40:35.690Z,2.30
2022-11-07T22:42:57.170Z,2.37
2022-11-07T22:45:18.653Z,2.37
2022-11-07T22:47:40.191Z,2.37
2022-11-07T22:50:01.668Z,2.30
2022-11-07T22:52:23.141Z,2.30
2022-11-07T22:54:44.620Z,2.00
2022-11-07T22:57:06.092Z,2.47
2022-11-07T22:59:27.635Z,2.20
2022-11-07T23:01:49.238Z,2.63
2022-11-07T23:04:15.076Z,2.43
2022-11-07T23:06:36.589Z,2.50
2022-11-07T23:08:59.408Z,2.20
2022-11-07T23:14:08.313Z,2.00
2022-11-07T23:16:35.165Z,2.30
2022-11-07T23:18:58.370Z,2.20
2022-11-07T23:21:20.925Z,1.80
2022-11-07T23:23:43.150Z,2.20
2022-11-07T23:26:07.433Z,2.50
2022-11-07T23:28:29.058Z,2.57
2022-11-07T23:30:52.157Z,2.20
2022-11-07T23:33:13.639Z,2.57
2022-11-07T23:35:35.110Z,2.33
2022-11-07T23:37:56.628Z,2.70
2022-11-07T23:40:18.103Z,2.50
2022-11-07T23:42:39.655Z,2.80
2022-11-07T23:45:19.791Z,2.40
2022-11-07T23:47:59.719Z,2.43
2022-11-07T23:50:39.684Z,2.20
2022-11-07T23:53:21.126Z,2.30
2022-11-07T23:55:42.578Z,2.10
2022-11-07T23:58:22.790Z,2.37
